sensor_id;sensor_type;location;lat;lon;timestamp;pressure;altitude;pressure_sealevel;temperature;humidity
22257;BME280;11297;42.686;23.374;2022-07-29T00:00:11;95151.56;;;21.71;69.56
22257;BME280;11297;42.686;23.374;2022-07-29T00:02:36;95153.06;;;21.72;69.46
22257;BME280;11297;42.686;23.374;2022-07-29T00:05:03;95155.06;;;21.82;69.07
22257;BME280;11297;42.686;23.374;2022-07-29T00:07:29;95147.13;;;21.86;68.68
22257;BME280;11297;42.686;23.374;2022-07-29T00:09:54;95173.28;;;21.91;68.59
22257;BME280;11297;42.686;23.374;2022-07-29T00:12:20;95166.09;;;21.95;68.28
22257;BME280;11297;42.686;23.374;2022-07-29T00:14:46;95169.63;;;22.09;68.57
22257;BME280;11297;42.686;23.374;2022-07-29T00:17:11;95178.13;;;22.25;68.07
22257;BME280;11297;42.686;23.374;2022-07-29T00:19:37;95171.78;;;22.40;67.43
22257;BME280;11297;42.686;23.374;2022-07-29T00:22:02;95179.06;;;22.53;66.83
22257;BME280;11297;42.686;23.374;2022-07-29T00:24:28;95176.47;;;22.63;66.35
22257;BME280;11297;42.686;23.374;2022-07-29T00:26:53;95181.84;;;22.77;65.47
22257;BME280;11297;42.686;23.374;2022-07-29T00:29:19;95181.88;;;22.88;64.71
22257;BME280;11297;42.686;23.374;2022-07-29T00:31:44;95180.06;;;22.99;64.59
22257;BME280;11297;42.686;23.374;2022-07-29T00:34:10;95168.75;;;23.05;64.12
22257;BME280;11297;42.686;23.374;2022-07-29T00:36:56;95163.81;;;23.07;63.88
22257;BME280;11297;42.686;23.374;2022-07-29T00:39:21;95167.63;;;23.09;64.35
22257;BME280;11297;42.686;23.374;2022-07-29T00:41:47;95163.06;;;23.10;64.06
22257;BME280;11297;42.686;23.374;2022-07-29T00:44:13;95166.88;;;23.16;64.32
22257;BME280;11297;42.686;23.374;2022-07-29T00:46:38;95171.81;;;23.21;64.37
22257;BME280;11297;42.686;23.374;2022-07-29T00:49:03;95173.72;;;23.20;64.85
22257;BME280;11297;42.686;23.374;2022-07-29T00:51:30;95176.38;;;23.20;64.56
22257;BME280;11297;42.686;23.374;2022-07-29T00:53:56;95174.47;;;23.17;64.83
22257;BME280;11297;42.686;23.374;2022-07-29T00:56:22;95176.31;;;23.07;65.98
22257;BME280;11297;42.686;23.374;2022-07-29T00:58:48;95168.69;;;22.95;66.41
22257;BME280;11297;42.686;23.374;2022-07-29T01:01:15;95177.03;;;22.97;66.21
22257;BME280;11297;42.686;23.374;2022-07-29T01:03:41;95175.47;;;22.89;66.68
22257;BME280;11297;42.686;23.374;2022-07-29T01:06:06;95175.00;;;22.69;67.12
22257;BME280;11297;42.686;23.374;2022-07-29T01:08:32;95164.28;;;22.56;68.16
22257;BME280;11297;42.686;23.374;2022-07-29T01:10:59;95160.16;;;22.58;68.29
22257;BME280;11297;42.686;23.374;2022-07-29T01:13:25;95163.97;;;22.64;67.55
22257;BME280;11297;42.686;23.374;2022-07-29T01:16:03;95166.25;;;22.62;68.00
22257;BME280;11297;42.686;23.374;2022-07-29T01:18:34;95167.00;;;22.62;68.28
22257;BME280;11297;42.686;23.374;2022-07-29T01:21:40;95164.69;;;22.58;68.28
22257;BME280;11297;42.686;23.374;2022-07-29T01:27:26;95160.47;;;22.46;69.49
22257;BME280;11297;42.686;23.374;2022-07-29T01:29:58;95160.09;;;22.51;68.85
22257;BME280;11297;42.686;23.374;2022-07-29T01:32:27;95158.13;;;22.38;69.55
22257;BME280;11297;42.686;23.374;2022-07-29T01:37:57;95163.41;;;22.31;69.70
22257;BME280;11297;42.686;23.374;2022-07-29T01:40:40;95163.09;;;22.43;69.62
22257;BME280;11297;42.686;23.374;2022-07-29T01:43:10;95151.41;;;22.47;68.91
22257;BME280;11297;42.686;23.374;2022-07-29T01:45:39;95153.25;;;22.43;69.46
22257;BME280;11297;42.686;23.374;2022-07-29T01:48:27;95154.00;;;22.44;69.13
22257;BME280;11297;42.686;23.374;2022-07-29T01:51:02;95143.47;;;22.47;68.96
22257;BME280;11297;42.686;23.374;2022-07-29T01:53:35;95150.31;;;22.55;68.92
22257;BME280;11297;42.686;23.374;2022-07-29T01:56:03;95140.50;;;22.59;68.63
22257;BME280;11297;42.686;23.374;2022-07-29T01:58:31;95146.53;;;22.56;68.88
22257;BME280;11297;42.686;23.374;2022-07-29T02:00:59;95138.53;;;22.46;69.46
22257;BME280;11297;42.686;23.374;2022-07-29T02:03:26;95141.13;;;22.35;69.66
22257;BME280;11297;42.686;23.374;2022-07-29T02:05:53;95132.31;;;22.21;70.57
22257;BME280;11297;42.686;23.374;2022-07-29T02:08:21;95131.59;;;22.27;70.66
22257;BME280;11297;42.686;23.374;2022-07-29T02:10:48;95133.06;;;22.21;70.58
22257;BME280;11297;42.686;23.374;2022-07-29T02:13:15;95124.28;;;22.14;71.04
22257;BME280;11297;42.686;23.374;2022-07-29T02:15:43;95128.47;;;22.15;70.84
22257;BME280;11297;42.686;23.374;2022-07-29T02:18:15;95119.25;;;21.95;71.43
22257;BME280;11297;42.686;23.374;2022-07-29T02:20:45;95126.84;;;22.00;71.30
22257;BME280;11297;42.686;23.374;2022-07-29T02:23:15;95131.41;;;22.03;71.33
22257;BME280;11297;42.686;23.374;2022-07-29T02:25:42;95136.31;;;22.01;71.37
22257;BME280;11297;42.686;23.374;2022-07-29T02:28:08;95120.81;;;22.03;70.97
22257;BME280;11297;42.686;23.374;2022-07-29T02:30:36;95138.63;;;22.09;70.71
22257;BME280;11297;42.686;23.374;2022-07-29T02:33:04;95135.25;;;22.12;70.48
22257;BME280;11297;42.686;23.374;2022-07-29T02:35:31;95142.84;;;22.17;70.46
22257;BME280;11297;42.686;23.374;2022-07-29T02:37:57;95125.53;;;22.23;70.29
22257;BME280;11297;42.686;23.374;2022-07-29T02:40:41;95121.72;;;22.21;69.92
22257;BME280;11297;42.686;23.374;2022-07-29T02:43:08;95116.78;;;22.19;69.51
22257;BME280;11297;42.686;23.374;2022-07-29T02:45:34;95107.38;;;22.25;69.38
22257;BME280;11297;42.686;23.374;2022-07-29T02:48:05;95108.88;;;22.23;69.12
22257;BME280;11297;42.686;23.374;2022-07-29T02:50:36;95105.84;;;22.24;69.33
22257;BME280;11297;42.686;23.374;2022-07-29T02:53:11;95113.41;;;22.22;68.94
22257;BME280;11297;42.686;23.374;2022-07-29T02:58:25;95114.56;;;22.25;68.55
22257;BME280;11297;42.686;23.374;2022-07-29T03:00:58;95117.97;;;22.29;67.99
22257;BME280;11297;42.686;23.374;2022-07-29T03:03:28;95133.09;;;22.25;68.28
22257;BME280;11297;42.686;23.374;2022-07-29T03:05:56;95118.78;;;22.33;68.12
22257;BME280;11297;42.686;23.374;2022-07-29T03:08:23;95121.03;;;22.31;68.57
22257;BME280;11297;42.686;23.374;2022-07-29T03:10:50;95109.72;;;22.34;68.29
22257;BME280;11297;42.686;23.374;2022-07-29T03:13:16;95114.22;;;22.26;68.76
22257;BME280;11297;42.686;23.374;2022-07-29T03:15:44;95113.03;;;22.24;68.66
22257;BME280;11297;42.686;23.374;2022-07-29T03:18:10;95120.16;;;22.20;69.11
22257;BME280;11297;42.686;23.374;2022-07-29T03:20:37;95127.47;;;22.30;68.53
22257;BME280;11297;42.686;23.374;2022-07-29T03:23:03;95120.63;;;22.29;68.66
22257;BME280;11297;42.686;23.374;2022-07-29T03:25:28;95111.94;;;22.25;69.27
22257;BME280;11297;42.686;23.374;2022-07-29T03:27:53;95121.63;;;22.14;69.59
22257;BME280;11297;42.686;23.374;2022-07-29T03:30:19;95124.69;;;22.16;69.58
22257;BME280;11297;42.686;23.374;2022-07-29T03:32:44;95117.31;;;21.89;70.30
22257;BME280;11297;42.686;23.374;2022-07-29T03:35:10;95122.34;;;21.58;71.72
22257;BME280;11297;42.686;23.374;2022-07-29T03:37:36;95118.91;;;21.54;71.79
22257;BME280;11297;42.686;23.374;2022-07-29T03:40:03;95116.53;;;21.45;72.26
22257;BME280;11297;42.686;23.374;2022-07-29T03:42:33;95116.59;;;21.49;72.35
22257;BME280;11297;42.686;23.374;2022-07-29T03:45:05;95119.59;;;21.47;72.06
22257;BME280;11297;42.686;23.374;2022-07-29T03:47:32;95126.63;;;21.33;72.45
22257;BME280;11297;42.686;23.374;2022-07-29T03:50:05;95122.72;;;21.23;73.01
22257;BME280;11297;42.686;23.374;2022-07-29T03:52:31;95120.25;;;21.37;72.48
22257;BME280;11297;42.686;23.374;2022-07-29T03:54:57;95124.88;;;21.47;72.00
22257;BME280;11297;42.686;23.374;2022-07-29T03:57:25;95131.00;;;21.55;71.68
22257;BME280;11297;42.686;23.374;2022-07-29T03:59:53;95129.41;;;21.47;71.22
22257;BME280;11297;42.686;23.374;2022-07-29T04:02:19;95135.56;;;21.58;71.14
22257;BME280;11297;42.686;23.374;2022-07-29T04:04:45;95134.06;;;21.60;71.08
22257;BME280;11297;42.686;23.374;2022-07-29T04:07:15;95134.16;;;21.70;71.06
22257;BME280;11297;42.686;23.374;2022-07-29T04:09:40;95134.97;;;21.74;71.25
22257;BME280;11297;42.686;23.374;2022-07-29T04:12:06;95118.38;;;21.77;70.33
22257;BME280;11297;42.686;23.374;2022-07-29T04:14:32;95136.31;;;22.01;70.06
22257;BME280;11297;42.686;23.374;2022-07-29T04:16:59;95128.44;;;22.11;68.85
22257;BME280;11297;42.686;23.374;2022-07-29T04:19:24;95123.69;;;22.31;68.28
22257;BME280;11297;42.686;23.374;2022-07-29T04:21:50;95139.28;;;22.50;68.21
22257;BME280;11297;42.686;23.374;2022-07-29T04:24:16;95121.97;;;22.62;67.68
22257;BME280;11297;42.686;23.374;2022-07-29T04:26:42;95130.28;;;22.64;66.12
22257;BME280;11297;42.686;23.374;2022-07-29T04:29:08;95122.75;;;22.73;66.81
22257;BME280;11297;42.686;23.374;2022-07-29T04:31:33;95131.13;;;22.82;66.04
22257;BME280;11297;42.686;23.374;2022-07-29T04:33:58;95134.28;;;23.08;65.14
22257;BME280;11297;42.686;23.374;2022-07-29T04:36:24;95131.03;;;24.43;65.42
22257;BME280;11297;42.686;23.374;2022-07-29T04:38:49;95134.84;;;25.38;62.37
22257;BME280;11297;42.686;23.374;2022-07-29T04:41:15;95138.47;;;26.15;60.51
22257;BME280;11297;42.686;23.374;2022-07-29T04:43:40;95141.91;;;26.59;55.36
22257;BME280;11297;42.686;23.374;2022-07-29T04:46:06;95142.50;;;26.73;55.24
22257;BME280;11297;42.686;23.374;2022-07-29T04:48:32;95142.75;;;26.89;54.85
22257;BME280;11297;42.686;23.374;2022-07-29T04:50:58;95145.03;;;27.20;54.77
22257;BME280;11297;42.686;23.374;2022-07-29T04:53:23;95141.41;;;27.63;53.11
22257;BME280;11297;42.686;23.374;2022-07-29T04:55:49;95143.38;;;27.86;50.68
22257;BME280;11297;42.686;23.374;2022-07-29T04:58:14;95148.13;;;28.24;51.25
22257;BME280;11297;42.686;23.374;2022-07-29T05:00:40;95143.66;;;28.40;50.54
22257;BME280;11297;42.686;23.374;2022-07-29T05:03:06;95142.88;;;28.62;49.34
22257;BME280;11297;42.686;23.374;2022-07-29T05:05:31;95149.50;;;28.77;49.18
22257;BME280;11297;42.686;23.374;2022-07-29T05:07:57;95145.59;;;29.01;48.03
22257;BME280;11297;42.686;23.374;2022-07-29T05:10:22;95142.97;;;29.17;48.37
22257;BME280;11297;42.686;23.374;2022-07-29T05:12:48;95147.38;;;29.27;48.16
22257;BME280;11297;42.686;23.374;2022-07-29T05:15:13;95143.25;;;29.42;47.38
22257;BME280;11297;42.686;23.374;2022-07-29T05:17:39;95152.34;;;29.63;47.14
22257;BME280;11297;42.686;23.374;2022-07-29T05:20:05;95143.97;;;29.77;45.87
22257;BME280;11297;42.686;23.374;2022-07-29T05:22:31;95143.91;;;29.81;46.57
22257;BME280;11297;42.686;23.374;2022-07-29T05:24:56;95158.34;;;29.87;45.45
22257;BME280;11297;42.686;23.374;2022-07-29T05:27:22;95146.38;;;29.56;46.77
22257;BME280;11297;42.686;23.374;2022-07-29T05:29:47;95153.13;;;29.44;46.23
22257;BME280;11297;42.686;23.374;2022-07-29T05:32:13;95150.78;;;29.46;46.96
22257;BME280;11297;42.686;23.374;2022-07-29T05:34:38;95152.16;;;29.54;47.45
22257;BME280;11297;42.686;23.374;2022-07-29T05:37:04;95153.59;;;29.75;46.27
22257;BME280;11297;42.686;23.374;2022-07-29T05:39:30;95146.28;;;29.94;46.55
22257;BME280;11297;42.686;23.374;2022-07-29T05:41:55;95152.22;;;30.18;45.25
22257;BME280;11297;42.686;23.374;2022-07-29T05:44:21;95146.72;;;30.41;44.04
22257;BME280;11297;42.686;23.374;2022-07-29T05:46:46;95153.38;;;29.85;45.46
22257;BME280;11297;42.686;23.374;2022-07-29T05:49:12;95149.56;;;30.02;45.45
22257;BME280;11297;42.686;23.374;2022-07-29T05:51:37;95158.84;;;29.82;45.31
22257;BME280;11297;42.686;23.374;2022-07-29T05:54:03;95159.16;;;29.84;45.24
22257;BME280;11297;42.686;23.374;2022-07-29T05:56:28;95153.56;;;30.10;44.38
22257;BME280;11297;42.686;23.374;2022-07-29T05:58:54;95169.31;;;30.24;43.87
22257;BME280;11297;42.686;23.374;2022-07-29T06:01:20;95157.53;;;30.37;44.34
22257;BME280;11297;42.686;23.374;2022-07-29T06:03:45;95152.75;;;30.44;44.07
22257;BME280;11297;42.686;23.374;2022-07-29T06:06:11;95153.88;;;30.59;43.15
22257;BME280;11297;42.686;23.374;2022-07-29T06:08:37;95163.91;;;30.71;43.74
22257;BME280;11297;42.686;23.374;2022-07-29T06:11:03;95159.66;;;30.74;42.51
22257;BME280;11297;42.686;23.374;2022-07-29T06:13:29;95171.03;;;30.78;43.38
22257;BME280;11297;42.686;23.374;2022-07-29T06:15:55;95168.22;;;30.97;43.49
22257;BME280;11297;42.686;23.374;2022-07-29T06:18:20;95171.63;;;31.13;43.78
22257;BME280;11297;42.686;23.374;2022-07-29T06:20:51;95166.19;;;31.29;44.17
22257;BME280;11297;42.686;23.374;2022-07-29T06:23:17;95168.19;;;31.53;43.58
22257;BME280;11297;42.686;23.374;2022-07-29T06:25:43;95165.09;;;31.67;42.76
22257;BME280;11297;42.686;23.374;2022-07-29T06:28:08;95163.34;;;31.48;42.11
22257;BME280;11297;42.686;23.374;2022-07-29T06:30:34;95161.09;;;31.59;41.64
22257;BME280;11297;42.686;23.374;2022-07-29T06:32:59;95169.28;;;31.68;42.47
22257;BME280;11297;42.686;23.374;2022-07-29T06:35:26;95155.41;;;31.57;41.74
22257;BME280;11297;42.686;23.374;2022-07-29T06:37:51;95159.28;;;31.56;42.19
22257;BME280;11297;42.686;23.374;2022-07-29T06:40:17;95153.69;;;31.76;42.50
22257;BME280;11297;42.686;23.374;2022-07-29T06:43:01;95153.03;;;31.59;40.96
22257;BME280;11297;42.686;23.374;2022-07-29T06:45:27;95147.66;;;31.47;42.86
22257;BME280;11297;42.686;23.374;2022-07-29T06:47:52;95158.84;;;31.58;40.74
22257;BME280;11297;42.686;23.374;2022-07-29T06:50:17;95147.13;;;31.52;42.41
22257;BME280;11297;42.686;23.374;2022-07-29T06:52:43;95157.47;;;31.78;41.50
22257;BME280;11297;42.686;23.374;2022-07-29T06:55:09;95147.38;;;31.82;41.96
22257;BME280;11297;42.686;23.374;2022-07-29T06:57:34;95151.66;;;31.80;41.50
22257;BME280;11297;42.686;23.374;2022-07-29T06:59:59;95150.81;;;31.95;41.22
22257;BME280;11297;42.686;23.374;2022-07-29T07:02:25;95144.75;;;32.16;41.03
22257;BME280;11297;42.686;23.374;2022-07-29T07:04:51;95144.00;;;32.28;40.84
22257;BME280;11297;42.686;23.374;2022-07-29T07:07:16;95147.75;;;32.30;40.25
22257;BME280;11297;42.686;23.374;2022-07-29T07:09:42;95148.41;;;32.34;40.71
22257;BME280;11297;42.686;23.374;2022-07-29T07:12:07;95134.19;;;32.34;39.33
22257;BME280;11297;42.686;23.374;2022-07-29T07:14:33;95146.03;;;32.36;40.16
22257;BME280;11297;42.686;23.374;2022-07-29T07:16:58;95150.44;;;32.55;40.23
22257;BME280;11297;42.686;23.374;2022-07-29T07:19:26;95151.56;;;32.66;40.06
22257;BME280;11297;42.686;23.374;2022-07-29T07:21:52;95137.22;;;32.69;39.45
22257;BME280;11297;42.686;23.374;2022-07-29T07:24:18;95150.28;;;32.92;40.14
22257;BME280;11297;42.686;23.374;2022-07-29T07:26:43;95141.59;;;33.09;39.52
22257;BME280;11297;42.686;23.374;2022-07-29T07:29:09;95136.94;;;32.88;39.30
22257;BME280;11297;42.686;23.374;2022-07-29T07:31:36;95151.63;;;33.09;38.28
22257;BME280;11297;42.686;23.374;2022-07-29T07:34:01;95138.00;;;32.91;38.53
22257;BME280;11297;42.686;23.374;2022-07-29T07:36:27;95144.06;;;32.95;38.23
22257;BME280;11297;42.686;23.374;2022-07-29T07:38:52;95140.78;;;33.00;37.74
22257;BME280;11297;42.686;23.374;2022-07-29T07:41:18;95130.72;;;33.13;37.99
22257;BME280;11297;42.686;23.374;2022-07-29T07:43:43;95132.47;;;32.73;38.00
22257;BME280;11297;42.686;23.374;2022-07-29T07:46:09;95138.59;;;32.74;38.64
22257;BME280;11297;42.686;23.374;2022-07-29T07:48:34;95144.41;;;32.85;39.11
22257;BME280;11297;42.686;23.374;2022-07-29T07:51:01;95137.38;;;32.87;38.98
22257;BME280;11297;42.686;23.374;2022-07-29T07:53:26;95137.47;;;32.62;36.89
22257;BME280;11297;42.686;23.374;2022-07-29T07:55:52;95129.63;;;32.55;39.39
22257;BME280;11297;42.686;23.374;2022-07-29T07:58:17;95138.09;;;32.66;36.68
22257;BME280;11297;42.686;23.374;2022-07-29T08:00:43;95146.25;;;32.75;39.18
22257;BME280;11297;42.686;23.374;2022-07-29T08:03:08;95124.97;;;32.89;37.18
22257;BME280;11297;42.686;23.374;2022-07-29T08:05:37;95137.25;;;32.90;36.58
22257;BME280;11297;42.686;23.374;2022-07-29T08:08:03;95132.78;;;33.09;38.52
22257;BME280;11297;42.686;23.374;2022-07-29T08:10:28;95130.38;;;33.32;37.15
22257;BME280;11297;42.686;23.374;2022-07-29T08:13:12;95130.25;;;33.35;36.79
22257;BME280;11297;42.686;23.374;2022-07-29T08:15:39;95124.41;;;33.37;36.79
22257;BME280;11297;42.686;23.374;2022-07-29T08:18:05;95139.91;;;33.45;37.06
22257;BME280;11297;42.686;23.374;2022-07-29T08:20:30;95128.00;;;33.64;37.09
22257;BME280;11297;42.686;23.374;2022-07-29T08:22:58;95126.94;;;33.53;35.66
22257;BME280;11297;42.686;23.374;2022-07-29T08:25:24;95123.06;;;33.63;37.13
22257;BME280;11297;42.686;23.374;2022-07-29T08:27:49;95124.50;;;33.85;36.50
22257;BME280;11297;42.686;23.374;2022-07-29T08:30:15;95112.59;;;34.04;35.46
22257;BME280;11297;42.686;23.374;2022-07-29T08:32:40;95124.47;;;34.06;35.03
22257;BME280;11297;42.686;23.374;2022-07-29T08:35:06;95121.31;;;34.08;36.36
22257;BME280;11297;42.686;23.374;2022-07-29T08:37:32;95120.88;;;33.79;33.17
22257;BME280;11297;42.686;23.374;2022-07-29T08:39:58;95115.63;;;33.76;35.10
22257;BME280;11297;42.686;23.374;2022-07-29T08:42:23;95112.66;;;33.83;35.57
22257;BME280;11297;42.686;23.374;2022-07-29T08:44:49;95112.06;;;33.48;35.09
22257;BME280;11297;42.686;23.374;2022-07-29T08:47:16;95109.13;;;33.64;35.86
22257;BME280;11297;42.686;23.374;2022-07-29T08:49:42;95108.38;;;33.64;35.29
22257;BME280;11297;42.686;23.374;2022-07-29T08:52:10;95120.69;;;34.04;35.00
22257;BME280;11297;42.686;23.374;2022-07-29T08:54:36;95118.19;;;34.18;34.73
22257;BME280;11297;42.686;23.374;2022-07-29T08:57:01;95097.06;;;34.26;33.78
22257;BME280;11297;42.686;23.374;2022-07-29T08:59:28;95116.41;;;34.24;33.30
22257;BME280;11297;42.686;23.374;2022-07-29T09:01:56;95104.50;;;34.04;33.89
22257;BME280;11297;42.686;23.374;2022-07-29T09:04:24;95111.13;;;33.73;33.28
22257;BME280;11297;42.686;23.374;2022-07-29T09:06:54;95103.81;;;33.82;33.42
22257;BME280;11297;42.686;23.374;2022-07-29T09:09:21;95105.41;;;34.01;33.93
22257;BME280;11297;42.686;23.374;2022-07-29T09:11:47;95100.47;;;34.17;32.34
22257;BME280;11297;42.686;23.374;2022-07-29T09:14:13;95093.31;;;34.32;32.24
22257;BME280;11297;42.686;23.374;2022-07-29T09:16:45;95098.00;;;34.40;32.62
22257;BME280;11297;42.686;23.374;2022-07-29T09:19:30;95085.81;;;34.27;31.41
22257;BME280;11297;42.686;23.374;2022-07-29T09:21:57;95079.00;;;33.96;32.44
22257;BME280;11297;42.686;23.374;2022-07-29T09:24:44;95093.75;;;33.74;33.96
22257;BME280;11297;42.686;23.374;2022-07-29T09:27:29;95093.50;;;33.50;34.41
22257;BME280;11297;42.686;23.374;2022-07-29T09:29:58;95089.88;;;33.44;34.96
22257;BME280;11297;42.686;23.374;2022-07-29T09:32:24;95096.88;;;33.42;36.17
22257;BME280;11297;42.686;23.374;2022-07-29T09:35:20;95084.84;;;33.34;36.00
22257;BME280;11297;42.686;23.374;2022-07-29T09:37:46;95088.72;;;33.54;35.80
22257;BME280;11297;42.686;23.374;2022-07-29T09:40:21;95090.03;;;33.89;36.29
22257;BME280;11297;42.686;23.374;2022-07-29T09:42:47;95091.16;;;34.00;34.78
22257;BME280;11297;42.686;23.374;2022-07-29T09:45:29;95090.41;;;34.09;35.23
22257;BME280;11297;42.686;23.374;2022-07-29T09:47:55;95087.88;;;34.14;31.90
22257;BME280;11297;42.686;23.374;2022-07-29T09:50:36;95075.50;;;34.43;34.08
22257;BME280;11297;42.686;23.374;2022-07-29T09:53:02;95081.81;;;34.40;32.99
22257;BME280;11297;42.686;23.374;2022-07-29T09:55:27;95082.25;;;34.66;33.09
22257;BME280;11297;42.686;23.374;2022-07-29T09:57:53;95090.03;;;34.55;31.69
22257;BME280;11297;42.686;23.374;2022-07-29T10:00:20;95072.50;;;34.41;33.42
22257;BME280;11297;42.686;23.374;2022-07-29T10:02:48;95072.03;;;34.52;32.68
22257;BME280;11297;42.686;23.374;2022-07-29T10:05:24;95066.50;;;34.64;29.49
22257;BME280;11297;42.686;23.374;2022-07-29T10:07:57;95051.19;;;34.88;32.17
22257;BME280;11297;42.686;23.374;2022-07-29T10:10:25;95052.94;;;35.09;32.89
22257;BME280;11297;42.686;23.374;2022-07-29T10:12:57;95049.19;;;35.15;30.40
22257;BME280;11297;42.686;23.374;2022-07-29T10:15:26;95047.59;;;35.32;31.01
22257;BME280;11297;42.686;23.374;2022-07-29T10:17:53;95059.78;;;35.28;32.20
22257;BME280;11297;42.686;23.374;2022-07-29T10:20:19;95052.31;;;35.23;31.69
22257;BME280;11297;42.686;23.374;2022-07-29T10:22:46;95045.06;;;35.37;31.84
22257;BME280;11297;42.686;23.374;2022-07-29T10:25:14;95039.16;;;35.48;32.42
22257;BME280;11297;42.686;23.374;2022-07-29T10:27:40;95037.78;;;35.52;31.47
22257;BME280;11297;42.686;23.374;2022-07-29T10:30:06;95036.13;;;35.55;31.35
22257;BME280;11297;42.686;23.374;2022-07-29T10:43:50;95032.38;;;35.02;32.22
22257;BME280;11297;42.686;23.374;2022-07-29T10:46:17;95020.22;;;35.07;31.54
22257;BME280;11297;42.686;23.374;2022-07-29T10:49:23;95027.16;;;34.99;30.83
22257;BME280;11297;42.686;23.374;2022-07-29T10:52:08;95019.38;;;34.65;31.44
22257;BME280;11297;42.686;23.374;2022-07-29T10:57:13;95009.16;;;34.25;32.91
22257;BME280;11297;42.686;23.374;2022-07-29T11:00:25;95010.38;;;34.33;33.45
22257;BME280;11297;42.686;23.374;2022-07-29T11:05:02;95001.25;;;34.48;32.52
22257;BME280;11297;42.686;23.374;2022-07-29T11:07:29;95006.31;;;34.55;31.74
22257;BME280;11297;42.686;23.374;2022-07-29T11:20:44;94985.75;;;34.75;32.74
22257;BME280;11297;42.686;23.374;2022-07-29T11:25:43;94974.97;;;34.66;31.50
22257;BME280;11297;42.686;23.374;2022-07-29T11:28:14;94986.38;;;34.61;31.73
22257;BME280;11297;42.686;23.374;2022-07-29T11:30:51;94985.50;;;34.46;31.86
22257;BME280;11297;42.686;23.374;2022-07-29T11:33:29;94965.72;;;34.40;32.13
22257;BME280;11297;42.686;23.374;2022-07-29T11:36:09;94985.16;;;34.27;33.23
22257;BME280;11297;42.686;23.374;2022-07-29T11:38:36;94984.59;;;34.32;33.31
22257;BME280;11297;42.686;23.374;2022-07-29T11:41:27;94971.53;;;34.30;32.74
22257;BME280;11297;42.686;23.374;2022-07-29T11:43:59;94983.97;;;34.19;33.47
22257;BME280;11297;42.686;23.374;2022-07-29T11:46:45;94964.81;;;34.08;32.36
22257;BME280;11297;42.686;23.374;2022-07-29T11:49:24;94970.19;;;34.08;32.22
22257;BME280;11297;42.686;23.374;2022-07-29T11:51:55;94974.38;;;34.09;33.21
22257;BME280;11297;42.686;23.374;2022-07-29T11:54:28;94963.28;;;34.16;33.58
22257;BME280;11297;42.686;23.374;2022-07-29T11:56:57;94966.00;;;34.16;32.47
22257;BME280;11297;42.686;23.374;2022-07-29T11:59:24;94960.88;;;34.18;31.11
22257;BME280;11297;42.686;23.374;2022-07-29T12:01:54;94963.44;;;34.12;34.51
22257;BME280;11297;42.686;23.374;2022-07-29T12:04:19;94979.94;;;33.96;33.86
22257;BME280;11297;42.686;23.374;2022-07-29T12:06:51;94968.97;;;34.00;33.88
22257;BME280;11297;42.686;23.374;2022-07-29T12:09:18;94965.69;;;34.05;34.55
22257;BME280;11297;42.686;23.374;2022-07-29T12:11:45;94964.47;;;33.97;34.70
22257;BME280;11297;42.686;23.374;2022-07-29T12:14:25;94960.88;;;34.09;35.19
22257;BME280;11297;42.686;23.374;2022-07-29T12:16:51;94960.59;;;34.07;35.08
22257;BME280;11297;42.686;23.374;2022-07-29T12:19:16;94967.19;;;33.97;35.06
22257;BME280;11297;42.686;23.374;2022-07-29T12:21:46;94955.03;;;33.92;35.16
22257;BME280;11297;42.686;23.374;2022-07-29T12:24:13;94970.19;;;33.99;35.96
22257;BME280;11297;42.686;23.374;2022-07-29T12:26:55;94950.88;;;34.09;34.25
22257;BME280;11297;42.686;23.374;2022-07-29T12:29:22;94944.69;;;34.09;31.78
22257;BME280;11297;42.686;23.374;2022-07-29T12:31:52;94957.44;;;33.99;34.47
22257;BME280;11297;42.686;23.374;2022-07-29T12:34:20;94943.50;;;34.01;33.29
22257;BME280;11297;42.686;23.374;2022-07-29T12:36:48;94945.09;;;33.81;33.78
22257;BME280;11297;42.686;23.374;2022-07-29T12:39:15;94935.97;;;33.69;32.86
22257;BME280;11297;42.686;23.374;2022-07-29T12:41:41;94932.59;;;33.38;31.58
22257;BME280;11297;42.686;23.374;2022-07-29T12:44:07;94944.31;;;33.44;30.78
22257;BME280;11297;42.686;23.374;2022-07-29T12:46:32;94928.84;;;33.36;30.72
22257;BME280;11297;42.686;23.374;2022-07-29T12:48:59;94924.28;;;33.15;30.76
22257;BME280;11297;42.686;23.374;2022-07-29T12:51:32;94930.75;;;33.18;31.60
22257;BME280;11297;42.686;23.374;2022-07-29T12:54:07;94940.31;;;33.10;31.71
22257;BME280;11297;42.686;23.374;2022-07-29T12:56:33;94912.88;;;33.02;33.91
22257;BME280;11297;42.686;23.374;2022-07-29T12:58:59;94921.13;;;33.08;32.85
22257;BME280;11297;42.686;23.374;2022-07-29T13:01:24;94914.25;;;33.07;32.17
22257;BME280;11297;42.686;23.374;2022-07-29T13:03:57;94919.59;;;32.98;35.11
22257;BME280;11297;42.686;23.374;2022-07-29T13:06:44;94907.38;;;33.15;34.72
22257;BME280;11297;42.686;23.374;2022-07-29T13:09:19;94910.56;;;33.31;33.64
22257;BME280;11297;42.686;23.374;2022-07-29T13:11:49;94911.91;;;33.35;35.74
22257;BME280;11297;42.686;23.374;2022-07-29T13:14:36;94904.91;;;33.38;31.58
22257;BME280;11297;42.686;23.374;2022-07-29T13:17:08;94910.72;;;33.36;34.47
22257;BME280;11297;42.686;23.374;2022-07-29T13:19:47;94896.81;;;33.38;32.38
22257;BME280;11297;42.686;23.374;2022-07-29T13:22:21;94914.31;;;33.34;34.41
22257;BME280;11297;42.686;23.374;2022-07-29T13:24:51;94898.72;;;33.29;31.82
22257;BME280;11297;42.686;23.374;2022-07-29T13:27:18;94903.09;;;33.35;33.35
22257;BME280;11297;42.686;23.374;2022-07-29T13:29:44;94889.94;;;33.46;36.12
22257;BME280;11297;42.686;23.374;2022-07-29T13:32:10;94891.03;;;33.57;35.15
22257;BME280;11297;42.686;23.374;2022-07-29T13:34:36;94876.19;;;33.62;33.68